createdAt,value
2022-12-29T00:02:19.745Z,46.60
2022-12-29T00:05:14.407Z,47.80
2022-12-29T00:08:08.744Z,46.00
2022-12-29T00:11:03.125Z,46.00
2022-12-29T00:14:15.804Z,46.70
2022-12-29T00:17:10.731Z,46.30
2022-12-29T00:20:23.212Z,46.90
2022-12-29T00:23:35.630Z,46.40
2022-12-29T00:26:48.230Z,45.70
2022-12-29T00:30:00.765Z,45.20
2022-12-29T00:33:13.196Z,45.40
2022-12-29T00:36:28.472Z,45.60
2022-12-29T00:39:41.103Z,44.30
2022-12-29T00:42:53.553Z,44.70
2022-12-29T00:45:48.078Z,44.60
2022-12-29T00:49:00.795Z,45.50
2022-12-29T00:51:56.421Z,45.20
2022-12-29T00:54:50.895Z,44.40
2022-12-29T00:57:45.183Z,44.80
2022-12-29T01:00:39.758Z,44.10
2022-12-29T01:03:35.020Z,43.50
2022-12-29T01:06:29.574Z,43.70
2022-12-29T01:09:42.663Z,42.90
2022-12-29T01:12:43.128Z,43.30
2022-12-29T01:15:37.340Z,43.10
2022-12-29T01:18:31.759Z,42.50
2022-12-29T01:21:26.247Z,42.40
2022-12-29T01:24:22.136Z,42.40
2022-12-29T01:27:16.353Z,42.50
2022-12-29T01:30:11.234Z,42.50
2022-12-29T01:33:05.600Z,42.20
2022-12-29T01:36:04.393Z,41.80
2022-12-29T01:38:58.913Z,41.20
2022-12-29T01:41:53.350Z,41.80
2022-12-29T01:44:56.928Z,42.30
2022-12-29T01:47:56.109Z,41.40
2022-12-29T01:50:55.848Z,40.60
2022-12-29T01:53:50.421Z,41.30
2022-12-29T01:56:45.315Z,41.50
2022-12-29T01:59:44.191Z,41.10
2022-12-29T02:02:39.235Z,39.70
2022-12-29T02:05:51.924Z,40.50
2022-12-29T02:08:48.744Z,40.40
2022-12-29T02:11:43.604Z,40.80
2022-12-29T02:14:38.319Z,40.70
2022-12-29T02:18:00.792Z,40.50
2022-12-29T02:20:55.135Z,38.90
2022-12-29T02:24:10.120Z,39.90
2022-12-29T02:27:14.906Z,39.90
2022-12-29T02:30:17.401Z,39.80
2022-12-29T02:33:34.255Z,39.40
2022-12-29T02:36:47.016Z,39.60
2022-12-29T02:39:58.670Z,38.30
2022-12-29T02:43:21.607Z,37.90
2022-12-29T02:46:33.816Z,38.60
2022-12-29T02:50:03.529Z,38.70
2022-12-29T02:53:44.410Z,38.90
2022-12-29T02:56:38.757Z,39.10
2022-12-29T02:59:33.189Z,38.40
2022-12-29T03:02:51.797Z,38.90
2022-12-29T03:06:09.753Z,39.50
2022-12-29T03:09:19.050Z,38.40
2022-12-29T03:12:53.100Z,37.80
2022-12-29T03:16:26.267Z,38.20
2022-12-29T03:19:34.868Z,38.30
2022-12-29T03:22:34.196Z,38.60
2022-12-29T03:25:58.414Z,38.10
2022-12-29T03:28:55.961Z,37.50
2022-12-29T03:31:53.542Z,37.40
2022-12-29T03:34:49.145Z,37.60
2022-12-29T03:37:52.533Z,37.40
2022-12-29T03:40:54.815Z,37.60
2022-12-29T03:43:49.447Z,37.30
2022-12-29T03:46:44.044Z,37.10
2022-12-29T03:49:38.492Z,36.50
2022-12-29T03:52:32.812Z,36.70
2022-12-29T03:55:27.130Z,36.90
2022-12-29T03:58:21.458Z,36.20
2022-12-29T04:01:15.832Z,35.40
2022-12-29T04:04:12.851Z,36.00
2022-12-29T04:07:07.165Z,35.80
2022-12-29T04:10:02.196Z,35.50
2022-12-29T04:12:56.536Z,36.30
2022-12-29T04:15:51.070Z,35.20
2022-12-29T04:18:45.375Z,35.90
2022-12-29T04:21:39.789Z,37.00
2022-12-29T04:24:34.105Z,37.50
2022-12-29T04:27:28.470Z,37.30
2022-12-29T04:30:22.841Z,37.10
2022-12-29T04:33:17.318Z,37.30
2022-12-29T04:36:13.593Z,36.70
2022-12-29T04:39:08.488Z,36.40
2022-12-29T04:42:02.857Z,37.30
2022-12-29T04:44:57.293Z,36.80
2022-12-29T04:47:51.624Z,36.20
2022-12-29T04:50:46.548Z,36.70
2022-12-29T04:53:40.953Z,37.00
2022-12-29T04:56:35.330Z,37.30
2022-12-29T04:59:29.730Z,37.20
2022-12-29T05:02:24.272Z,37.00
2022-12-29T05:05:18.770Z,37.30
2022-12-29T05:08:13.320Z,37.30
2022-12-29T05:11:08.130Z,36.90
2022-12-29T05:14:02.504Z,36.50
2022-12-29T05:17:52.227Z,36.20
2022-12-29T05:20:46.846Z,35.80
2022-12-29T05:23:41.229Z,35.50
2022-12-29T05:26:35.769Z,35.50
2022-12-29T05:29:30.112Z,35.80
2022-12-29T05:32:24.501Z,35.90
2022-12-29T05:35:18.841Z,36.10
2022-12-29T05:38:13.313Z,35.60
2022-12-29T05:41:07.774Z,36.60
2022-12-29T05:44:02.829Z,36.30
2022-12-29T05:46:57.380Z,35.60
2022-12-29T05:49:51.840Z,36.80
2022-12-29T05:52:46.250Z,36.00
2022-12-29T05:55:46.580Z,35.30
2022-12-29T05:58:42.707Z,34.90
2022-12-29T06:01:37.171Z,35.60
2022-12-29T06:04:31.667Z,35.40
2022-12-29T06:07:25.929Z,36.10
2022-12-29T06:10:20.597Z,35.90
2022-12-29T06:13:14.965Z,35.90
2022-12-29T06:16:11.870Z,35.60
2022-12-29T06:19:06.320Z,35.40
2022-12-29T06:22:00.652Z,35.30
2022-12-29T06:24:57.851Z,35.70
2022-12-29T06:27:54.392Z,35.70
2022-12-29T06:30:50.181Z,36.50
2022-12-29T06:33:48.255Z,36.50
2022-12-29T06:36:44.119Z,36.60
2022-12-29T06:39:38.519Z,36.70
2022-12-29T06:42:32.875Z,35.70
2022-12-29T06:45:27.477Z,35.80
2022-12-29T06:48:22.005Z,35.20
2022-12-29T06:51:16.245Z,35.20
2022-12-29T06:54:11.956Z,35.90
2022-12-29T06:57:06.264Z,35.70
2022-12-29T07:00:00.655Z,36.20
2022-12-29T07:02:57.254Z,36.60
2022-12-29T07:05:51.806Z,36.90
2022-12-29T07:08:46.077Z,37.40
2022-12-29T07:11:40.373Z,37.30
2022-12-29T07:14:40.750Z,37.50
2022-12-29T07:17:37.277Z,38.00
2022-12-29T07:20:31.670Z,38.00
2022-12-29T07:23:26.211Z,38.10
2022-12-29T07:26:20.545Z,38.50
2022-12-29T07:29:14.900Z,38.80
2022-12-29T07:32:09.309Z,38.70
2022-12-29T07:35:04.106Z,38.70
2022-12-29T07:37:58.454Z,38.30
2022-12-29T07:40:52.961Z,38.90
2022-12-29T07:43:51.133Z,38.80
2022-12-29T07:46:56.195Z,39.20
2022-12-29T07:49:52.706Z,39.40
2022-12-29T07:52:49.309Z,39.30
2022-12-29T07:55:43.729Z,39.20
2022-12-29T07:58:38.226Z,39.20
2022-12-29T08:01:32.770Z,39.50
2022-12-29T08:04:27.283Z,39.80
2022-12-29T08:07:22.370Z,40.10
2022-12-29T08:10:17.788Z,40.00
2022-12-29T08:13:12.303Z,40.40
2022-12-29T08:16:07.564Z,40.80
2022-12-29T08:19:01.864Z,40.30
2022-12-29T08:21:56.809Z,40.20
2022-12-29T08:24:51.180Z,40.30
2022-12-29T08:27:45.565Z,40.60
2022-12-29T08:30:39.817Z,40.80
2022-12-29T08:33:34.126Z,41.40
2022-12-29T08:36:28.636Z,41.50
2022-12-29T08:39:22.961Z,41.70
2022-12-29T08:42:17.601Z,42.00
2022-12-29T08:45:12.527Z,42.40
2022-12-29T08:48:07.136Z,42.50
2022-12-29T08:51:01.594Z,42.20
2022-12-29T08:53:56.029Z,42.40
2022-12-29T08:56:50.379Z,42.90
2022-12-29T08:59:44.866Z,43.40
2022-12-29T09:02:39.617Z,43.60
2022-12-29T09:05:34.065Z,43.90
2022-12-29T09:08:28.707Z,44.20
2022-12-29T09:11:25.515Z,44.20
2022-12-29T09:14:19.898Z,44.20
2022-12-29T09:17:32.643Z,44.60
2022-12-29T09:20:27.051Z,44.70
2022-12-29T09:23:21.298Z,45.00
2022-12-29T09:26:15.668Z,45.10
2022-12-29T09:29:09.960Z,45.30
2022-12-29T09:32:07.597Z,45.50
2022-12-29T09:35:02.214Z,45.50
2022-12-29T09:37:56.495Z,45.80
2022-12-29T09:41:00.069Z,46.20
2022-12-29T09:44:02.808Z,46.50
2022-12-29T09:46:59.347Z,46.80
2022-12-29T09:50:06.529Z,47.10
2022-12-29T09:53:13.828Z,47.40
2022-12-29T09:56:13.863Z,47.50
2022-12-29T09:59:33.152Z,47.60
2022-12-29T10:02:42.763Z,47.70
2022-12-29T10:05:49.689Z,48.00
2022-12-29T10:09:27.344Z,48.10
2022-12-29T10:12:33.118Z,48.80
2022-12-29T10:15:45.935Z,48.80
2022-12-29T10:18:48.143Z,49.30
2022-12-29T10:21:54.793Z,49.70
2022-12-29T10:24:53.916Z,50.00
2022-12-29T10:27:51.965Z,50.10
2022-12-29T10:30:48.795Z,50.40
2022-12-29T10:33:45.066Z,50.30
2022-12-29T10:36:49.684Z,50.60
2022-12-29T10:39:48.786Z,51.10
2022-12-29T10:42:52.237Z,51.50
2022-12-29T10:45:47.255Z,51.80
2022-12-29T10:48:41.628Z,51.90
2022-12-29T10:51:41.167Z,52.60
2022-12-29T10:55:04.860Z,53.30
2022-12-29T10:58:06.977Z,53.10
2022-12-29T11:01:01.865Z,53.30
2022-12-29T11:04:08.138Z,53.60
2022-12-29T11:07:03.616Z,53.80
2022-12-29T11:09:58.305Z,54.00
2022-12-29T11:13:20.300Z,53.80
2022-12-29T11:16:15.225Z,54.00
2022-12-29T11:19:22.071Z,54.10
2022-12-29T11:22:31.430Z,54.20
2022-12-29T11:25:25.932Z,54.30
2022-12-29T11:28:20.572Z,54.90
2022-12-29T11:31:19.631Z,55.00
2022-12-29T11:34:27.475Z,55.20
2022-12-29T11:37:22.692Z,55.10
2022-12-29T11:40:22.704Z,54.90
2022-12-29T11:43:30.178Z,54.90
2022-12-29T11:46:29.212Z,54.70
2022-12-29T11:49:26.547Z,54.90
2022-12-29T11:52:28.634Z,54.70
2022-12-29T11:55:26.981Z,54.80
2022-12-29T11:58:21.363Z,54.70
2022-12-29T12:01:37.883Z,54.60
2022-12-29T12:04:40.637Z,54.60
2022-12-29T12:07:52.125Z,54.60
2022-12-29T12:11:24.491Z,54.50
2022-12-29T12:14:49.327Z,54.70
2022-12-29T12:17:55.393Z,54.60
2022-12-29T12:20:56.099Z,54.90
2022-12-29T12:24:20.655Z,54.80
2022-12-29T12:27:38.434Z,54.80
2022-12-29T12:30:41.566Z,54.70
2022-12-29T12:33:45.530Z,54.80
2022-12-29T12:37:24.020Z,54.80
2022-12-29T12:40:40.553Z,54.90
2022-12-29T12:43:56.018Z,55.00
2022-12-29T12:47:27.784Z,55.10
2022-12-29T12:50:28.500Z,55.30
2022-12-29T12:53:46.596Z,55.40
2022-12-29T12:56:50.279Z,55.50
2022-12-29T12:59:55.402Z,55.30
2022-12-29T13:03:28.685Z,55.20
2022-12-29T13:06:53.716Z,55.60
2022-12-29T13:09:53.841Z,55.50
2022-12-29T13:13:09.322Z,55.60
2022-12-29T13:16:28.211Z,55.70
2022-12-29T13:19:33.867Z,55.60
2022-12-29T13:22:40.647Z,55.60
2022-12-29T13:25:39.205Z,55.70
2022-12-29T13:28:58.337Z,55.90
2022-12-29T13:32:07.925Z,56.20
2022-12-29T13:35:25.630Z,56.20
2022-12-29T13:39:14.775Z,56.30
2022-12-29T13:42:14.116Z,56.40
2022-12-29T13:45:23.418Z,57.10
2022-12-29T13:48:25.875Z,56.70
2022-12-29T13:51:27.451Z,56.60
2022-12-29T13:55:06.732Z,56.60
2022-12-29T13:58:30.597Z,56.70
2022-12-29T14:01:41.956Z,56.70
2022-12-29T14:04:37.330Z,56.60
2022-12-29T14:07:39.245Z,56.50
2022-12-29T14:10:51.959Z,56.40
2022-12-29T14:13:49.041Z,56.80
2022-12-29T14:16:45.109Z,56.50
2022-12-29T14:19:46.034Z,56.40
2022-12-29T14:23:02.682Z,56.60
2022-12-29T14:26:09.160Z,56.80
2022-12-29T14:29:41.935Z,56.90
2022-12-29T14:32:36.249Z,57.00
2022-12-29T14:35:51.633Z,57.00
2022-12-29T14:38:50.530Z,57.10
2022-12-29T14:41:44.856Z,57.00
2022-12-29T14:45:25.670Z,57.40
2022-12-29T14:48:35.230Z,57.40
2022-12-29T14:51:39.021Z,57.50
2022-12-29T14:54:42.384Z,58.10
2022-12-29T14:57:43.533Z,58.40
2022-12-29T15:00:39.454Z,58.50
2022-12-29T15:03:40.974Z,58.60
2022-12-29T15:06:41.905Z,58.60
2022-12-29T15:09:45.978Z,58.70
2022-12-29T15:12:53.941Z,58.80
2022-12-29T15:15:48.259Z,59.50
2022-12-29T15:18:44.857Z,59.00
2022-12-29T15:21:39.694Z,58.70
2022-12-29T15:24:40.942Z,58.70
2022-12-29T15:27:37.635Z,58.90
2022-12-29T15:30:32.065Z,58.80
2022-12-29T15:33:30.241Z,58.90
2022-12-29T15:36:27.300Z,58.90
2022-12-29T15:39:22.311Z,59.00
2022-12-29T15:42:28.652Z,59.10
2022-12-29T15:45:23.891Z,59.20
2022-12-29T15:48:25.329Z,59.10
2022-12-29T15:51:31.232Z,59.50
2022-12-29T15:54:34.306Z,59.50
2022-12-29T15:57:31.414Z,59.40
2022-12-29T16:00:36.999Z,59.80
2022-12-29T16:03:36.183Z,60.00
2022-12-29T16:06:46.413Z,60.10
2022-12-29T16:09:47.635Z,60.00
2022-12-29T16:12:41.923Z,60.00
2022-12-29T16:15:36.493Z,60.20
2022-12-29T16:18:41.595Z,60.30
2022-12-29T16:21:38.413Z,60.50
2022-12-29T16:24:35.383Z,60.40
2022-12-29T16:27:40.467Z,60.50
2022-12-29T16:30:36.858Z,60.70
2022-12-29T16:33:52.901Z,61.20
2022-12-29T16:37:36.552Z,61.30
2022-12-29T16:40:33.102Z,61.80
2022-12-29T16:43:33.829Z,61.90
2022-12-29T16:46:33.131Z,62.00
2022-12-29T16:49:28.801Z,62.00
2022-12-29T16:52:35.650Z,62.40
2022-12-29T16:55:30.141Z,62.70
2022-12-29T16:58:31.472Z,62.70
2022-12-29T17:01:26.654Z,62.70
2022-12-29T17:04:21.052Z,63.60
2022-12-29T17:07:20.455Z,64.00
2022-12-29T17:10:17.966Z,63.90
2022-12-29T17:13:12.487Z,63.70
2022-12-29T17:16:09.723Z,63.80
2022-12-29T17:19:04.169Z,64.10
2022-12-29T17:21:58.618Z,64.00
2022-12-29T17:24:53.550Z,63.90
2022-12-29T17:28:03.282Z,64.20
2022-12-29T17:31:08.901Z,64.00
2022-12-29T17:34:03.689Z,64.70
2022-12-29T17:36:57.889Z,64.60
2022-12-29T17:39:52.578Z,64.30
2022-12-29T17:42:49.792Z,64.50
2022-12-29T17:45:45.510Z,64.60
2022-12-29T17:48:39.783Z,65.10
2022-12-29T17:51:34.508Z,65.10
2022-12-29T17:54:29.061Z,64.90
2022-12-29T17:57:24.071Z,65.30
2022-12-29T18:00:24.660Z,65.10
2022-12-29T18:03:21.241Z,65.40
2022-12-29T18:06:16.036Z,65.50
2022-12-29T18:09:12.144Z,65.40
2022-12-29T18:12:06.985Z,65.70
2022-12-29T18:15:01.705Z,65.40
2022-12-29T18:18:03.640Z,65.60
2022-12-29T18:21:01.231Z,65.80
2022-12-29T18:23:55.512Z,66.10
2022-12-29T18:26:49.928Z,66.00
2022-12-29T18:29:44.394Z,65.90
2022-12-29T18:32:38.787Z,66.00
2022-12-29T18:35:59.036Z,66.10
2022-12-29T18:38:55.239Z,66.00
2022-12-29T18:41:49.544Z,66.60
2022-12-29T18:44:43.895Z,66.30
2022-12-29T18:47:38.693Z,66.80
2022-12-29T18:50:33.335Z,67.10
2022-12-29T18:53:27.939Z,67.00
2022-12-29T18:56:23.971Z,67.40
2022-12-29T18:59:18.248Z,68.10
2022-12-29T19:02:19.070Z,68.30
2022-12-29T19:05:26.334Z,68.20
2022-12-29T19:08:21.271Z,68.10
2022-12-29T19:11:15.737Z,68.50
2022-12-29T19:14:18.435Z,68.50
2022-12-29T19:17:14.641Z,68.60
2022-12-29T19:20:09.665Z,68.90
2022-12-29T19:23:07.486Z,69.10
2022-12-29T19:26:01.911Z,69.30
2022-12-29T19:28:56.439Z,69.50
2022-12-29T19:31:50.772Z,69.20
2022-12-29T19:34:45.180Z,69.50
2022-12-29T19:37:41.617Z,69.50
2022-12-29T19:40:36.223Z,69.80
2022-12-29T19:43:30.600Z,70.70
2022-12-29T19:46:25.876Z,70.40
2022-12-29T19:49:20.385Z,70.80
2022-12-29T19:52:14.757Z,70.60
2022-12-29T19:55:10.463Z,70.60
2022-12-29T19:58:04.810Z,70.70
2022-12-29T20:01:12.935Z,70.50
2022-12-29T20:04:07.368Z,70.30
2022-12-29T20:07:01.993Z,70.80
2022-12-29T20:09:56.490Z,70.60
2022-12-29T20:12:50.884Z,70.70
2022-12-29T20:15:46.517Z,71.10
2022-12-29T20:18:41.342Z,71.40
2022-12-29T20:21:35.784Z,71.10
2022-12-29T20:24:31.084Z,71.00
2022-12-29T20:27:25.453Z,71.10
2022-12-29T20:30:20.622Z,71.40
2022-12-29T20:33:15.176Z,71.30
2022-12-29T20:36:16.793Z,71.50
2022-12-29T20:39:14.365Z,71.80
2022-12-29T20:42:09.047Z,71.60
2022-12-29T20:45:03.387Z,71.50
2022-12-29T20:47:57.760Z,71.30
2022-12-29T20:50:52.245Z,71.30
2022-12-29T20:53:47.909Z,71.30
2022-12-29T20:56:42.484Z,71.30
2022-12-29T20:59:37.111Z,70.90
2022-12-29T21:02:31.600Z,70.60
2022-12-29T21:05:26.273Z,70.70
2022-12-29T21:08:22.396Z,70.70
2022-12-29T21:11:16.817Z,70.10
2022-12-29T21:14:11.223Z,70.00
2022-12-29T21:17:06.117Z,69.60
2022-12-29T21:20:00.661Z,69.90
2022-12-29T21:22:55.276Z,70.00
2022-12-29T21:25:50.714Z,70.80
2022-12-29T21:28:45.778Z,69.50
2022-12-29T21:31:40.188Z,69.10
2022-12-29T21:34:35.720Z,67.30
2022-12-29T21:37:30.054Z,66.80
2022-12-29T21:40:24.480Z,66.90
2022-12-29T21:43:18.841Z,67.10
2022-12-29T21:46:13.340Z,67.10
2022-12-29T21:49:08.395Z,67.20
2022-12-29T21:52:02.887Z,66.70
2022-12-29T21:55:02.916Z,66.40
2022-12-29T21:58:15.697Z,66.60
2022-12-29T22:01:31.439Z,66.60
2022-12-29T22:04:45.761Z,66.50
2022-12-29T22:07:58.557Z,66.20
2022-12-29T22:11:11.177Z,67.80
2022-12-29T22:14:05.595Z,66.90
2022-12-29T22:17:00.128Z,62.90
2022-12-29T22:19:54.397Z,62.70
2022-12-29T22:22:49.372Z,59.90
2022-12-29T22:25:45.878Z,59.40
2022-12-29T22:28:41.941Z,58.40
2022-12-29T22:31:36.572Z,57.70
2022-12-29T22:34:31.140Z,55.80
2022-12-29T22:37:25.483Z,54.90
2022-12-29T22:40:19.899Z,54.30
2022-12-29T22:43:14.231Z,53.60
2022-12-29T22:46:11.404Z,52.60
2022-12-29T22:49:05.294Z,53.00
2022-12-29T22:51:59.852Z,51.10
2022-12-29T22:54:54.179Z,50.30
2022-12-29T22:57:48.827Z,51.00
2022-12-29T23:00:43.211Z,50.80
2022-12-29T23:03:38.369Z,49.30
2022-12-29T23:06:33.049Z,49.50
2022-12-29T23:09:27.479Z,49.80
2022-12-29T23:12:21.961Z,49.50
2022-12-29T23:15:16.412Z,48.80
2022-12-29T23:18:10.924Z,48.60
2022-12-29T23:21:05.898Z,48.80
2022-12-29T23:24:05.464Z,48.10
2022-12-29T23:26:59.846Z,47.50
2022-12-29T23:29:54.293Z,47.80
2022-12-29T23:32:48.714Z,47.60
2022-12-29T23:35:43.043Z,46.50
2022-12-29T23:38:37.647Z,46.00
2022-12-29T23:41:32.118Z,45.50
2022-12-29T23:44:26.559Z,45.70
2022-12-29T23:47:20.810Z,46.00
2022-12-29T23:50:15.358Z,45.70
2022-12-29T23:53:11.323Z,46.20
2022-12-29T23:56:07.541Z,45.90
2022-12-29T23:59:04.093Z,46.00
